OL22 weather

Tulsa Helicopters Inc. Heliport
Tulsa, Oklahoma, United States

Public forecast

Using degrees Fahrenheit for public forecast. Weather courtesy of forecast.io.

METAR (pilot weather report)

Closest report is Richard Lloyd Jones Jr Airport, 6.2 nm (11.5 km) WSW. Retrieved 2019/04/26 00:53 UTC (51 minutes ago):

KRVS 260053Z 34013G20KT 10SM CLR 21/11 A2994 RMK AO2 SLP144 T02110106

TAF (pilot weather forecast)

Forecast is more than 12 hours old.

Closest forecast is Richard Lloyd Jones Jr Airport, 6.2 nm (11.5 km) WSW. Retrieved 2019/04/25 00:22 UTC (1 day ago):

TAF KRVS 252320Z 2600/2624 33010G20KT P6SM BKN070 FM260200 36004KT P6SM SKC FM262000 17006KT P6SM FEW250